Time;durP1;ratioP1;P1;durP2;ratioP2;P2;SDS_P1;SDS_P2;PMS_P1;PMS_P2;Temp;Humidity;BMP_temperature;BMP_pressure;BME280_temperature;BME280_humidity;BME280_pressure;Samples;Min_cycle;Max_cycle;Signal;HPM_P1;HPM_P2
2022/01/02 00:00:40;;;;;;;23.00;16.17;;;231.10;2252.80;;;;;;5000418;28;20037;-85
2022/01/02 00:03:08;;;;;;;21.20;13.88;;;231.10;2252.80;;;;;;5000300;28;20024;-84
2022/01/02 00:05:38;;;;;;;23.05;15.13;;;231.10;2252.80;;;;;;5000190;28;20033;-85
2022/01/02 00:08:07;;;;;;;20.85;14.20;;;231.10;2252.80;;;;;;5017983;28;20030;-85
2022/01/02 00:10:48;;;;;;;21.88;13.30;;;231.10;2252.80;;;;;;5017573;28;20037;-85
2022/01/02 00:13:21;;;;;;;23.02;15.32;;;231.10;2252.80;;;;;;5017797;28;20022;-85
2022/01/02 00:15:47;;;;;;;22.88;15.85;;;231.10;2252.80;;;;;;5017984;28;20030;-90
2022/01/02 00:18:16;;;;;;;24.42;15.50;;;231.20;2252.80;;;;;;5000050;28;20030;-86
2022/01/02 00:20:48;;;;;;;21.27;14.70;;;231.20;2252.80;;;;;;5017782;28;20108;-85
2022/01/02 00:23:21;;;;;;;20.60;14.68;;;231.20;2252.80;;;;;;5000018;28;20501;-85
2022/01/02 00:25:52;;;;;;;26.88;16.10;;;231.10;2252.80;;;;;;5017465;28;20022;-93
2022/01/02 00:28:18;;;;;;;26.95;15.70;;;231.10;2252.80;;;;;;4999892;28;20036;-84
2022/01/02 00:30:47;;;;;;;23.77;15.40;;;231.10;2252.80;;;;;;5017318;28;20101;-86
2022/01/02 00:33:13;;;;;;;21.92;15.05;;;231.10;2252.80;;;;;;4999773;28;20033;-92
2022/01/02 00:35:39;;;;;;;26.83;15.13;;;231.10;2252.80;;;;;;4999677;28;20026;-85
2022/01/02 00:38:06;;;;;;;23.75;15.07;;;231.10;2252.80;;;;;;4999850;28;20032;-84
2022/01/02 00:40:40;;;;;;;21.77;14.77;;;231.10;2252.80;;;;;;4999639;28;20080;-85
2022/01/02 00:43:11;;;;;;;22.25;14.70;;;231.00;2252.80;;;;;;4999013;28;20030;-94
2022/01/02 00:45:44;;;;;;;18.38;12.32;;;231.00;2252.80;;;;;;5009363;28;20052;-92
2022/01/02 00:48:22;;;;;;;18.25;12.13;;;231.00;2252.80;;;;;;5014998;28;20076;-94
2022/01/02 00:51:16;;;;;;;18.10;12.23;;;231.00;2252.80;;;;;;5004189;28;20112;-85
2022/01/02 00:53:46;;;;;;;16.95;12.02;;;231.00;2252.80;;;;;;5009197;28;20053;-91
2022/01/02 00:56:15;;;;;;;17.63;11.15;;;231.00;2252.80;;;;;;5006791;28;20037;-85
2022/01/02 00:58:51;;;;;;;16.25;11.07;;;231.00;2252.80;;;;;;5003876;28;20030;-93
2022/01/02 01:01:24;;;;;;;16.48;11.18;;;231.00;2252.80;;;;;;5006029;28;20482;-93
2022/01/02 01:03:53;;;;;;;14.73;9.85;;;231.00;2252.80;;;;;;5013492;28;20032;-84
2022/01/02 01:06:23;;;;;;;15.85;10.48;;;231.00;2252.80;;;;;;5019148;28;20022;-86
2022/01/02 01:08:56;;;;;;;14.07;9.43;;;231.00;2252.80;;;;;;5019085;28;20034;-85
2022/01/02 01:11:26;;;;;;;14.15;9.80;;;231.00;2252.80;;;;;;5018607;28;20482;-84
2022/01/02 01:13:53;;;;;;;15.48;9.52;;;231.00;2252.80;;;;;;5018524;28;20025;-85
2022/01/02 01:16:20;;;;;;;14.80;10.10;;;230.90;2252.80;;;;;;5018580;28;20042;-85
2022/01/02 01:18:46;;;;;;;16.48;9.82;;;230.90;2252.80;;;;;;5018560;28;20421;-85
2022/01/02 01:21:12;;;;;;;17.08;9.60;;;230.90;2252.80;;;;;;5018386;28;20026;-86
2022/01/02 01:23:39;;;;;;;15.35;9.30;;;230.90;2252.80;;;;;;5018292;28;20509;-84
2022/01/02 01:26:07;;;;;;;17.42;10.63;;;230.90;2252.80;;;;;;5018327;28;20026;-85
2022/01/02 01:28:34;;;;;;;21.98;12.77;;;231.30;2252.80;;;;;;5018431;28;20026;-85
2022/01/02 01:31:00;;;;;;;26.15;15.18;;;230.90;2252.80;;;;;;5018355;28;20109;-84
2022/01/02 01:33:26;;;;;;;28.02;18.10;;;230.90;2252.80;;;;;;5036089;28;20121;-84
2022/01/02 01:35:52;;;;;;;31.27;20.20;;;230.90;2252.80;;;;;;5018177;28;20038;-85
2022/01/02 01:38:18;;;;;;;34.17;22.38;;;230.70;2252.80;;;;;;5018316;28;20120;-85
2022/01/02 01:40:58;;;;;;;31.92;20.10;;;230.70;2252.80;;;;;;5018558;28;20076;-86
2022/01/02 01:43:53;;;;;;;35.88;21.35;;;230.50;2252.80;;;;;;5018252;28;20083;-87
2022/01/02 01:46:19;;;;;;;34.80;21.08;;;230.40;2252.80;;;;;;5035601;28;20065;-85
2022/01/02 01:48:54;;;;;;;31.35;21.17;;;205.70;2252.80;;;;;;5017934;28;20021;-85
2022/01/02 01:51:22;;;;;;;36.92;21.17;;;205.70;2252.80;;;;;;5018184;28;20030;-85
2022/01/02 01:53:48;;;;;;;34.85;20.80;;;205.60;2252.80;;;;;;5018048;28;20075;-88
2022/01/02 01:56:14;;;;;;;28.02;19.48;;;205.50;2252.80;;;;;;5016677;28;20441;-85
2022/01/02 01:58:40;;;;;;;32.47;20.85;;;205.40;2252.80;;;;;;5017797;28;20025;-86
2022/01/02 02:01:06;;;;;;;29.00;18.38;;;205.30;2252.80;;;;;;5017600;28;20398;-86
2022/01/02 02:03:33;;;;;;;33.05;20.88;;;205.20;2252.80;;;;;;5017601;28;20033;-86
2022/01/02 02:05:59;;;;;;;29.27;18.73;;;205.10;2252.80;;;;;;5017702;28;20030;-86
2022/01/02 02:08:27;;;;;;;30.30;19.27;;;205.00;2252.80;;;;;;5017698;28;20029;-85
2022/01/02 02:10:58;;;;;;;32.53;19.23;;;205.00;2252.80;;;;;;5017834;28;20116;-86
2022/01/02 02:13:25;;;;;;;28.35;18.55;;;205.00;2252.80;;;;;;5017557;28;20040;-85
2022/01/02 02:15:51;;;;;;;37.28;22.55;;;205.00;2252.80;;;;;;5017455;28;20041;-86
2022/01/02 02:18:19;;;;;;;37.78;22.27;;;205.00;2252.80;;;;;;5017410;28;20032;-87
2022/01/02 02:20:45;;;;;;;30.00;18.95;;;204.90;2252.80;;;;;;5017483;28;20057;-89
2022/01/02 02:23:13;;;;;;;24.23;17.10;;;204.80;2252.80;;;;;;5035059;28;20493;-89
2022/01/02 02:25:40;;;;;;;30.88;18.67;;;204.80;2252.80;;;;;;5035337;28;20022;-91
2022/01/02 02:28:13;;;;;;;27.73;18.23;;;179.80;2252.80;;;;;;5017356;28;20029;-93
2022/01/02 02:30:41;;;;;;;23.77;16.02;;;180.10;2252.80;;;;;;5035221;28;20018;-85
2022/01/02 02:33:09;;;;;;;28.20;17.45;;;204.80;2252.80;;;;;;5017193;28;20030;-85
2022/01/02 02:35:36;;;;;;;35.60;20.77;;;204.80;2252.80;;;;;;5034663;28;20539;-86
2022/01/02 02:38:05;;;;;;;40.20;22.45;;;204.80;2252.80;;;;;;5017156;28;20391;-85
2022/01/02 02:40:31;;;;;;;36.03;22.67;;;180.10;2252.80;;;;;;5034899;28;20025;-85
2022/01/02 02:51:22;;;;;;;36.28;22.00;;;180.10;2252.80;;;;;;5034791;28;20076;-85
2022/01/02 02:53:49;;;;;;;34.28;22.17;;;180.10;2252.80;;;;;;5016897;28;20022;-85
2022/01/02 02:56:24;;;;;;;27.95;18.40;;;180.10;2252.80;;;;;;5016665;28;20091;-85
2022/01/02 02:58:52;;;;;;;38.10;22.17;;;180.10;2252.80;;;;;;5016939;28;20387;-86
2022/01/02 03:01:22;;;;;;;33.85;20.92;;;180.10;2252.80;;;;;;5016937;28;20029;-85
2022/01/02 03:03:48;;;;;;;32.42;20.85;;;180.00;2252.80;;;;;;5016789;28;20061;-86
2022/01/02 03:06:15;;;;;;;27.60;18.20;;;180.10;2252.80;;;;;;5016459;28;20034;-85
2022/01/02 03:08:42;;;;;;;30.13;18.90;;;180.10;2252.80;;;;;;5017258;28;20030;-86
2022/01/02 03:11:12;;;;;;;25.45;18.02;;;180.00;2252.80;;;;;;5016754;28;20118;-85
2022/01/02 03:13:39;;;;;;;28.40;17.38;;;;;;;;;;5034528;28;20017;-87
2022/01/02 03:16:05;;;;;;;28.95;18.17;;;;;;;;;;5034415;28;20037;-86
2022/01/02 03:18:32;;;;;;;21.65;14.30;;;180.10;2252.80;;;;;;5017200;28;20034;-86
2022/01/02 03:20:58;;;;;;;24.70;14.88;;;180.00;2252.80;;;;;;5016867;28;20108;-86
2022/01/02 03:23:24;;;;;;;22.85;14.77;;;179.90;2252.80;;;;;;5016775;28;20084;-86
2022/01/02 03:25:50;;;;;;;22.05;14.35;;;179.90;2252.80;;;;;;5017226;28;20117;-86
2022/01/02 03:28:16;;;;;;;22.38;14.30;;;180.00;2252.80;;;;;;5016955;28;20056;-86
2022/01/02 03:30:43;;;;;;;22.00;15.45;;;180.00;2252.80;;;;;;5016921;28;20398;-86
2022/01/02 03:33:09;;;;;;;28.90;17.77;;;180.00;2252.80;;;;;;5016983;28;20028;-85
2022/01/02 03:35:35;;;;;;;22.45;15.18;;;180.10;2252.80;;;;;;5017151;28;20104;-85
2022/01/02 03:38:02;;;;;;;22.17;14.38;;;180.10;2252.80;;;;;;5016795;28;20030;-85
2022/01/02 03:40:28;;;;;;;20.30;14.40;;;180.10;2252.80;;;;;;5035388;28;20466;-86
2022/01/02 03:42:54;;;;;;;27.42;16.98;;;204.80;2252.80;;;;;;5016978;28;20037;-86
2022/01/02 03:45:20;;;;;;;35.60;23.08;;;180.10;2252.80;;;;;;5034653;28;20106;-85
2022/01/02 03:47:46;;;;;;;35.10;22.42;;;204.80;2252.80;;;;;;5034182;28;20057;-86
2022/01/02 03:50:12;;;;;;;32.53;22.30;;;180.10;2252.80;;;;;;5016763;28;20048;-86
2022/01/02 03:52:38;;;;;;;29.55;18.55;;;180.10;2252.80;;;;;;5017238;28;20034;-86
2022/01/02 03:55:05;;;;;;;27.83;17.58;;;180.10;2252.80;;;;;;5017307;28;20034;-85
2022/01/02 03:57:31;;;;;;;24.70;16.02;;;180.10;2252.80;;;;;;5016430;28;20056;-85
2022/01/02 03:59:57;;;;;;;26.13;17.02;;;180.00;2252.80;;;;;;5016395;28;20467;-86
2022/01/02 04:02:23;;;;;;;26.08;16.70;;;180.00;2252.80;;;;;;5016972;28;20025;-86
2022/01/02 04:04:48;;;;;;;25.08;15.93;;;179.90;2252.80;;;;;;5016810;28;20470;-86
2022/01/02 04:07:14;;;;;;;29.63;19.05;;;179.80;2252.80;;;;;;5016735;28;20033;-86
2022/01/02 04:09:40;;;;;;;27.42;18.48;;;179.60;2252.80;;;;;;5016548;28;20481;-86
2022/01/02 04:12:08;;;;;;;31.52;18.27;;;179.50;2252.80;;;;;;5016674;28;20022;-86
2022/01/02 04:14:34;;;;;;;31.90;20.55;;;179.50;2252.80;;;;;;5016468;28;20033;-86
2022/01/02 04:17:00;;;;;;;30.13;20.42;;;179.50;2252.80;;;;;;5016296;28;20087;-85
2022/01/02 04:19:26;;;;;;;33.88;22.35;;;179.50;2252.80;;;;;;5018322;28;20056;-86
2022/01/02 04:21:52;;;;;;;37.17;21.88;;;179.50;2252.80;;;;;;5019878;28;20030;-86
2022/01/02 04:24:18;;;;;;;39.53;23.00;;;179.40;2252.80;;;;;;5019860;28;20013;-86
2022/01/02 04:26:44;;;;;;;41.97;24.73;;;179.30;2252.80;;;;;;5020070;28;20025;-86
2022/01/02 04:29:10;;;;;;;52.70;27.92;;;179.30;2252.80;;;;;;5019961;28;20029;-86
2022/01/02 04:31:36;;;;;;;65.13;32.40;;;179.20;2252.80;;;;;;5019959;28;20021;-86
2022/01/02 04:34:02;;;;;;;107.28;55.20;;;179.20;2252.80;;;;;;5019653;28;20025;-87
2022/01/02 04:36:28;;;;;;;148.13;75.22;;;179.20;2252.80;;;;;;5019516;28;20068;-86
2022/01/02 04:38:54;;;;;;;216.98;102.93;;;179.20;2252.80;;;;;;5019460;28;20030;-86
2022/01/02 04:41:19;;;;;;;204.65;94.03;;;179.20;2252.80;;;;;;5019580;28;20140;-86
2022/01/02 04:43:45;;;;;;;84.63;37.97;;;179.20;2252.80;;;;;;5036978;28;20077;-93
2022/01/02 04:46:13;;;;;;;72.03;31.40;;;179.20;2252.80;;;;;;5019150;28;20050;-86
2022/01/02 04:48:38;;;;;;;62.50;28.70;;;179.20;2252.80;;;;;;5019285;28;20033;-86
2022/01/02 04:51:04;;;;;;;57.50;27.80;;;179.20;2252.80;;;;;;5019253;28;20030;-86
2022/01/02 04:53:31;;;;;;;57.03;25.65;;;179.20;2252.80;;;;;;5019799;28;20018;-86
2022/01/02 04:55:57;;;;;;;54.78;25.92;;;179.20;2252.80;;;;;;5018972;28;20057;-86
2022/01/02 04:58:23;;;;;;;49.60;24.48;;;179.20;2252.80;;;;;;5036667;28;20041;-87
2022/01/02 05:00:48;;;;;;;47.67;22.40;;;154.50;2252.80;;;;;;5036517;28;20382;-86
2022/01/02 05:03:14;;;;;;;38.22;20.40;;;154.50;2252.80;;;;;;5018878;28;20029;-86
2022/01/02 05:05:40;;;;;;;33.03;19.33;;;154.40;2252.80;;;;;;5018918;28;20108;-86
2022/01/02 05:08:06;;;;;;;27.60;16.30;;;154.40;2252.80;;;;;;5018914;28;20032;-86
2022/01/02 05:10:32;;;;;;;27.55;15.77;;;154.40;2252.80;;;;;;5018710;28;20140;-86
2022/01/02 05:12:58;;;;;;;25.08;16.77;;;154.40;2252.80;;;;;;5019025;28;20037;-86
2022/01/02 05:15:24;;;;;;;23.10;14.70;;;154.30;2252.80;;;;;;5019510;28;20048;-86
2022/01/02 05:17:50;;;;;;;22.98;14.48;;;154.30;2252.80;;;;;;5019021;28;20472;-85
2022/01/02 05:20:16;;;;;;;22.52;15.45;;;154.20;2252.80;;;;;;5019023;28;20036;-86
2022/01/02 05:22:42;;;;;;;22.58;15.18;;;154.20;2252.80;;;;;;5019119;28;20108;-86
2022/01/02 05:25:08;;;;;;;25.63;17.73;;;154.20;2252.80;;;;;;5019065;28;20025;-86
2022/01/02 05:27:34;;;;;;;25.52;15.45;;;154.20;2252.80;;;;;;5019299;28;20061;-86
2022/01/02 05:29:59;;;;;;;28.25;19.02;;;154.20;2252.80;;;;;;5018880;28;20509;-89
2022/01/02 05:32:25;;;;;;;26.55;19.63;;;154.10;2252.80;;;;;;5018614;28;20032;-88
2022/01/02 05:34:51;;;;;;;26.35;17.08;;;154.10;2252.80;;;;;;5019482;28;20053;-86
2022/01/02 05:37:17;;;;;;;23.85;17.70;;;154.00;2252.80;;;;;;5018535;28;20466;-86
2022/01/02 05:39:43;;;;;;;28.73;16.75;;;154.00;2252.80;;;;;;5018751;28;20025;-87
2022/01/02 05:42:09;;;;;;;25.45;16.23;;;154.00;2252.80;;;;;;5018756;28;20091;-87
2022/01/02 05:44:35;;;;;;;25.95;16.25;;;154.00;2252.80;;;;;;5018747;28;20393;-87
2022/01/02 05:47:01;;;;;;;22.17;15.07;;;154.10;2252.80;;;;;;5036775;28;20021;-86
2022/01/02 05:49:27;;;;;;;25.05;16.58;;;154.10;2252.80;;;;;;5018173;28;20390;-86
2022/01/02 05:51:53;;;;;;;23.52;15.27;;;154.10;2252.80;;;;;;5018644;28;20036;-87
2022/01/02 05:54:19;;;;;;;24.13;16.15;;;154.10;2252.80;;;;;;5018091;28;20037;-86
2022/01/02 05:56:44;;;;;;;26.33;17.95;;;154.10;2252.80;;;;;;5017940;28;20041;-88
2022/01/02 05:59:10;;;;;;;28.42;18.48;;;154.10;2252.80;;;;;;5035630;28;20030;-86
2022/01/02 06:01:37;;;;;;;33.10;20.73;;;154.10;2252.80;;;;;;5018337;28;20493;-87
2022/01/02 06:04:03;;;;;;;35.53;23.33;;;154.10;2252.80;;;;;;5018089;28;20029;-93
2022/01/02 06:06:28;;;;;;;35.38;23.45;;;154.10;2252.80;;;;;;5035949;28;20390;-87
2022/01/02 06:08:54;;;;;;;34.25;21.45;;;154.10;2252.80;;;;;;5017960;28;20508;-87
2022/01/02 06:11:20;;;;;;;33.13;20.75;;;154.00;2252.80;;;;;;5018309;28;20021;-86
2022/01/02 06:13:46;;;;;;;33.05;20.55;;;154.00;2252.80;;;;;;5017465;28;20038;-87
2022/01/02 06:16:12;;;;;;;37.08;24.58;;;154.00;2252.80;;;;;;5017625;28;20087;-86
2022/01/02 06:18:39;;;;;;;41.30;26.88;;;154.10;2252.80;;;;;;5018015;28;20022;-86
2022/01/02 06:21:05;;;;;;;39.35;27.35;;;154.10;2252.80;;;;;;5017863;28;20033;-86
2022/01/02 06:23:31;;;;;;;39.92;28.55;;;154.10;2252.80;;;;;;5018155;28;20029;-86
2022/01/02 06:25:57;;;;;;;44.25;27.83;;;154.10;2252.80;;;;;;5035893;28;20073;-86
2022/01/02 06:28:23;;;;;;;36.03;24.75;;;154.00;2252.80;;;;;;5017168;28;20076;-86
2022/01/02 06:30:49;;;;;;;34.05;21.80;;;154.10;2252.80;;;;;;5017505;28;20116;-86
2022/01/02 06:33:15;;;;;;;32.22;21.20;;;154.10;2252.80;;;;;;5017632;28;20025;-86
2022/01/02 06:35:41;;;;;;;42.75;27.30;;;154.10;2252.80;;;;;;5017213;28;20075;-86
2022/01/02 06:38:19;;;;;;;45.40;29.20;;;154.20;2252.80;;;;;;5017259;28;20021;-86
2022/01/02 06:40:47;;;;;;;40.83;25.55;;;154.20;2252.80;;;;;;5034671;28;20046;-87
2022/01/02 06:43:14;;;;;;;45.67;29.48;;;154.20;2252.80;;;;;;5034457;28;20470;-87
2022/01/02 06:45:40;;;;;;;44.88;29.63;;;154.20;2252.80;;;;;;5016933;28;20049;-86
2022/01/02 06:48:06;;;;;;;47.03;29.38;;;154.20;2252.80;;;;;;5016955;28;20075;-87
2022/01/02 06:50:33;;;;;;;41.30;25.95;;;154.20;2252.80;;;;;;5035038;28;20029;-87
2022/01/02 06:52:59;;;;;;;43.45;27.95;;;154.20;2252.80;;;;;;5034740;28;20474;-87
2022/01/02 06:55:25;;;;;;;47.33;30.55;;;154.20;2252.80;;;;;;5017418;28;20032;-87
2022/01/02 06:57:51;;;;;;;53.67;34.92;;;154.10;2252.80;;;;;;5017774;28;20482;-87
2022/01/02 07:00:17;;;;;;;81.35;62.00;;;154.20;2252.80;;;;;;5017366;28;20033;-86
2022/01/02 07:02:43;;;;;;;91.55;72.68;;;154.20;2252.80;;;;;;5034858;28;20493;-87
2022/01/02 07:05:09;;;;;;;88.13;70.60;;;154.30;2252.80;;;;;;5016478;28;20029;-87
2022/01/02 07:07:44;;;;;;;103.05;86.93;;;154.30;2252.80;;;;;;5016582;28;20025;-87
2022/01/02 07:10:11;;;;;;;163.85;130.05;;;154.40;2252.80;;;;;;5016864;28;20540;-86
2022/01/02 07:12:38;;;;;;;125.68;84.18;;;154.40;2252.80;;;;;;5017438;28;20026;-86
2022/01/02 07:15:08;;;;;;;113.70;69.00;;;154.50;2252.80;;;;;;5016677;28;20117;-85
2022/01/02 07:17:35;;;;;;;128.70;76.40;;;154.50;2252.80;;;;;;5016823;28;20030;-86
2022/01/02 07:20:03;;;;;;;81.75;52.60;;;154.50;2252.80;;;;;;5016572;28;20021;-86
2022/01/02 07:22:29;;;;;;;67.05;44.42;;;154.50;2252.80;;;;;;5034737;28;20025;-86
2022/01/02 07:24:55;;;;;;;59.10;38.72;;;154.50;2252.80;;;;;;5017213;28;20113;-86
2022/01/02 07:27:21;;;;;;;68.97;42.03;;;154.50;2252.80;;;;;;5034311;28;20022;-85
2022/01/02 07:29:49;;;;;;;62.95;39.80;;;179.20;2252.80;;;;;;5016583;28;20022;-85
2022/01/02 07:32:15;;;;;;;57.80;37.58;;;179.20;2252.80;;;;;;5016552;28;20036;-85
2022/01/02 07:34:42;;;;;;;57.17;36.53;;;179.20;2252.80;;;;;;5034039;28;20501;-85
2022/01/02 07:37:09;;;;;;;63.90;40.25;;;179.20;2252.80;;;;;;5016401;28;20042;-85
2022/01/02 07:39:35;;;;;;;53.75;37.05;;;179.20;2252.80;;;;;;5033844;28;20018;-86
2022/01/02 07:42:01;;;;;;;45.33;32.30;;;179.20;2252.80;;;;;;5016318;28;20027;-85
2022/01/02 07:44:27;;;;;;;39.47;29.08;;;179.30;2252.80;;;;;;5034093;28;20534;-86
2022/01/02 07:46:53;;;;;;;45.47;29.85;;;179.30;2252.80;;;;;;5016538;28;20140;-85
2022/01/02 07:49:19;;;;;;;44.67;32.28;;;179.40;2252.80;;;;;;5016667;28;20057;-85
2022/01/02 07:51:45;;;;;;;43.75;29.02;;;179.70;2252.80;;;;;;5016197;28;20033;-91
2022/01/02 07:54:13;;;;;;;46.72;33.40;;;179.60;2252.80;;;;;;5019042;28;20104;-89
2022/01/02 07:56:40;;;;;;;46.40;33.33;;;179.70;2252.80;;;;;;5020302;28;20033;-86
2022/01/02 07:59:06;;;;;;;43.40;30.92;;;179.70;2252.80;;;;;;5020724;28;20022;-89
2022/01/02 08:01:32;;;;;;;53.45;38.35;;;179.80;2252.80;;;;;;5021221;28;20029;-86
2022/01/02 08:03:58;;;;;;;65.18;40.75;;;179.80;2252.80;;;;;;5020538;28;20026;-86
2022/01/02 08:06:24;;;;;;;77.25;47.40;;;179.90;2252.80;;;;;;5020150;28;20029;-85
2022/01/02 08:08:50;;;;;;;77.93;50.08;;;179.80;2252.80;;;;;;5021074;28;20108;-88
2022/01/02 08:11:17;;;;;;;89.47;53.50;;;179.80;2252.80;;;;;;5038262;28;20025;-91
2022/01/02 08:13:45;;;;;;;85.25;55.35;;;179.80;2252.80;;;;;;5020910;28;20085;-84
2022/01/02 08:16:12;;;;;;;91.82;65.43;;;179.80;2252.80;;;;;;5037684;28;20029;-84
2022/01/02 08:18:38;;;;;;;92.28;61.47;;;179.80;2252.80;;;;;;5019737;28;20024;-89
2022/01/02 08:21:05;;;;;;;97.25;61.60;;;179.90;2252.80;;;;;;5019627;28;20030;-93
2022/01/02 08:23:31;;;;;;;93.68;57.78;;;179.90;2252.80;;;;;;5019696;28;20097;-85
2022/01/02 08:25:57;;;;;;;93.13;56.30;;;179.90;2252.80;;;;;;5020464;28;20114;-85
2022/01/02 08:28:22;;;;;;;112.75;69.38;;;180.00;2252.80;;;;;;5019451;28;20021;-89
2022/01/02 08:30:48;;;;;;;73.10;44.95;;;180.10;2252.80;;;;;;5019159;28;20109;-86
2022/01/02 08:33:15;;;;;;;71.95;45.67;;;180.10;2252.80;;;;;;5019291;28;20449;-85
2022/01/02 08:35:45;;;;;;;72.85;47.42;;;180.10;2252.80;;;;;;5019461;28;20034;-84
2022/01/02 08:38:12;;;;;;;80.68;51.88;;;204.90;2252.80;;;;;;5037152;28;20029;-84
2022/01/02 08:40:39;;;;;;;85.63;52.28;;;204.90;2252.80;;;;;;5019368;28;20018;-86
2022/01/02 08:43:05;;;;;;;90.15;54.67;;;;;;;;;;5018909;28;20068;-86
2022/01/02 08:45:32;;;;;;;80.15;48.80;;;;;;;;;;5018355;28;20038;-85
2022/01/02 08:47:58;;;;;;;111.95;67.13;;;;;;;;;;5002222;28;20100;-85
2022/01/02 08:50:24;;;;;;;105.30;62.00;;;205.40;2252.80;;;;;;5016354;28;20053;-85
2022/01/02 08:52:51;;;;;;;72.45;44.05;;;205.30;2252.80;;;;;;5016492;28;20026;-85
2022/01/02 08:55:16;;;;;;;83.63;45.90;;;205.40;2252.80;;;;;;5018387;28;20087;-85
2022/01/02 08:57:43;;;;;;;63.95;38.75;;;205.50;2252.80;;;;;;5037288;28;20390;-85
2022/01/02 09:00:10;;;;;;;59.97;38.08;;;205.60;2252.80;;;;;;5019292;28;20032;-85
2022/01/02 09:02:36;;;;;;;58.08;38.38;;;205.70;2252.80;;;;;;5019537;28;20382;-85
2022/01/02 09:05:02;;;;;;;54.83;37.05;;;230.40;2252.80;;;;;;5035803;28;20018;-85
2022/01/02 09:07:28;;;;;;;55.78;33.42;;;230.50;2252.80;;;;;;5019412;28;20021;-85
2022/01/02 09:09:54;;;;;;;58.95;35.78;;;230.60;2252.80;;;;;;5019304;28;20505;-85
2022/01/02 09:12:20;;;;;;;90.70;51.45;;;230.70;2252.80;;;;;;5018511;28;20026;-85
2022/01/02 09:14:46;;;;;;;170.48;80.22;;;;;;;;;;5036896;28;20040;-84
2022/01/02 09:17:12;;;;;;;130.10;61.15;;;231.20;2252.80;;;;;;5019602;28;20040;-85
2022/01/02 09:19:38;;;;;;;118.18;61.63;;;256.00;2252.80;;;;;;5018116;28;20027;-83
2022/01/02 09:22:04;;;;;;;151.32;77.15;;;256.30;2252.80;;;;;;5018434;28;20053;-84
2022/01/02 09:24:30;;;;;;;83.93;48.25;;;256.50;2252.80;;;;;;5018255;28;20026;-84
2022/01/02 09:26:57;;;;;;;59.88;36.58;;;256.50;2252.80;;;;;;5018019;28;20108;-84
2022/01/02 09:29:23;;;;;;;57.25;37.88;;;256.70;2252.80;;;;;;5018261;28;20029;-84
2022/01/02 09:31:50;;;;;;;71.32;45.97;;;256.80;2252.80;;;;;;5018036;28;20067;-85
2022/01/02 09:34:16;;;;;;;70.22;45.20;;;281.60;2278.40;;;;;;5018040;28;20022;-84
2022/01/02 09:36:42;;;;;;;95.30;58.47;;;281.80;2278.40;;;;;;5017939;28;20037;-83
2022/01/02 09:39:08;;;;;;;84.47;52.60;;;281.90;2278.40;;;;;;5018480;28;20044;-84
2022/01/02 09:41:34;;;;;;;100.38;65.32;;;281.90;2278.40;;;;;;5018896;28;20394;-84
2022/01/02 09:44:00;;;;;;;93.25;58.97;;;281.90;2278.40;;;;;;5017835;28;20032;-84
2022/01/02 09:46:28;;;;;;;87.15;55.55;;;282.00;2278.40;;;;;;5035789;28;20446;-83
2022/01/02 09:48:55;;;;;;;75.47;48.10;;;282.20;2278.40;;;;;;5017740;28;20021;-84
2022/01/02 09:51:24;;;;;;;66.43;45.10;;;282.30;2278.40;;;;;;5017837;28;20026;-84
2022/01/02 09:53:51;;;;;;;61.60;41.08;;;282.50;2278.40;;;;;;5017653;28;20026;-83
2022/01/02 09:56:18;;;;;;;57.55;38.58;;;307.30;2304.00;;;;;;5035010;28;20069;-83
2022/01/02 09:58:44;;;;;;;57.28;39.15;;;307.70;2304.00;;;;;;5017694;28;20023;-83
2022/01/02 10:01:24;;;;;;;59.58;37.75;;;333.00;2329.60;;;;;;5017320;28;20063;-83
2022/01/02 10:03:57;;;;;;;62.10;38.72;;;384.20;2124.80;;;;;;5017433;28;20029;-82
2022/01/02 10:06:42;;;;;;;61.67;41.53;;;435.90;1817.60;;;;;;5035329;28;20017;-83
2022/01/02 10:09:37;;;;;;;50.40;34.92;;;486.50;1689.60;;;;;;5026221;28;20048;-83
2022/01/02 10:12:19;;;;;;;68.30;34.20;;;538.00;1459.20;;;;;;5010956;28;20041;-83
2022/01/02 10:14:45;;;;;;;55.83;31.23;;;563.20;1459.20;;;;;;5017323;28;20029;-86
2022/01/02 10:17:11;;;;;;;81.75;33.88;;;563.20;1433.60;;;;;;5016664;28;20033;-86
2022/01/02 10:19:39;;;;;;;45.28;24.40;;;563.80;1356.80;;;;;;5035465;28;20022;-86
2022/01/02 10:22:06;;;;;;;35.05;23.00;;;588.80;1305.60;;;;;;5017782;28;20032;-87
2022/01/02 10:24:36;;;;;;;23.38;15.48;;;563.70;1356.80;;;;;;5017828;28;20032;-87
2022/01/02 10:27:19;;;;;;;31.33;17.85;;;538.40;1356.80;;;;;;5017797;28;20437;-87
2022/01/02 10:29:58;;;;;;;22.10;15.10;;;512.90;1433.60;;;;;;5017611;28;20025;-87
2022/01/02 10:32:27;;;;;;;23.75;13.00;;;512.50;1459.20;;;;;;5017771;28;20034;-86
2022/01/02 10:35:06;;;;;;;37.88;20.67;;;487.20;1510.40;;;;;;5017545;28;20025;-87
2022/01/02 10:37:32;;;;;;;26.30;15.60;;;486.90;1561.60;;;;;;4997662;28;20034;-87
2022/01/02 10:39:58;;;;;;;20.75;12.00;;;486.90;1561.60;;;;;;4999947;28;20384;-91
2022/01/02 10:42:23;;;;;;;18.52;13.23;;;486.50;1587.20;;;;;;5018109;28;20460;-87
2022/01/02 10:44:49;;;;;;;15.98;9.90;;;486.40;1638.40;;;;;;5017487;28;20409;-87
2022/01/02 10:47:18;;;;;;;16.05;9.27;;;461.20;1664.00;;;;;;5035610;28;20112;-87
2022/01/02 10:50:06;;;;;;;14.45;10.05;;;461.40;1664.00;;;;;;5017882;28;20027;-88
2022/01/02 10:52:38;;;;;;;19.98;13.00;;;512.30;1536.00;;;;;;5017481;28;20022;-88
2022/01/02 10:55:05;;;;;;;11.98;8.18;;;563.50;1433.60;;;;;;5034960;28;20021;-87
2022/01/02 10:57:33;;;;;;;14.95;9.95;;;563.30;1382.40;;;;;;5017210;28;20532;-90
2022/01/02 10:59:59;;;;;;;15.38;10.73;;;537.60;1484.80;;;;;;5018351;28;20029;-90
2022/01/02 11:02:27;;;;;;;18.33;12.27;;;487.20;1510.40;;;;;;5017596;28;20482;-91
2022/01/02 11:05:02;;;;;;;17.50;12.48;;;486.40;1612.80;;;;;;5017423;28;20030;-90
2022/01/02 11:07:38;;;;;;;26.90;18.13;;;512.20;1510.40;;;;;;5018423;28;20075;-89
2022/01/02 11:10:05;;;;;;;25.02;15.35;;;486.70;1612.80;;;;;;5018151;28;20057;-89
2022/01/02 11:12:32;;;;;;;16.55;11.88;;;460.90;1715.20;;;;;;5034865;28;20088;-90
2022/01/02 11:14:59;;;;;;;18.33;12.40;;;435.70;1792.00;;;;;;5017758;28;20021;-90
2022/01/02 11:17:25;;;;;;;11.20;8.27;;;435.20;1843.20;;;;;;5035144;28;20041;-89
2022/01/02 11:19:51;;;;;;;18.25;11.93;;;410.20;1894.40;;;;;;5014444;28;20048;-88
2022/01/02 11:22:30;;;;;;;15.90;10.20;;;409.80;1945.60;;;;;;5034501;28;20025;-90
2022/01/02 11:25:28;;;;;;;18.10;10.18;;;409.60;1945.60;;;;;;5017030;28;20095;-86
2022/01/02 11:28:02;;;;;;;14.55;10.20;;;384.80;2022.40;;;;;;5013956;28;20064;-89
2022/01/02 11:30:32;;;;;;;15.63;11.30;;;384.60;1996.80;;;;;;5029246;28;20037;-87
2022/01/02 11:33:14;;;;;;;16.95;11.90;;;384.40;2022.40;;;;;;5023168;28;20497;-90
2022/01/02 11:35:43;;;;;;;18.23;13.38;;;384.30;2073.60;;;;;;5023558;28;20042;-89
2022/01/02 11:38:10;;;;;;;19.17;12.38;;;384.20;2073.60;;;;;;5003630;28;20025;-90
2022/01/02 11:40:56;;;;;;;14.63;9.95;;;384.10;2099.20;;;;;;5021119;28;20057;-91
2022/01/02 11:43:49;;;;;;;16.42;10.90;;;384.00;2150.40;;;;;;5003532;28;20034;-89
2022/01/02 11:46:39;;;;;;;14.18;8.80;;;384.10;2150.40;;;;;;5003235;28;20084;-90
2022/01/02 11:49:05;;;;;;;30.73;11.23;;;384.10;2150.40;;;;;;5014042;28;20038;-88
2022/01/02 11:51:59;;;;;;;19.80;9.77;;;384.10;2176.00;;;;;;5023150;28;20032;-90
2022/01/02 11:54:28;;;;;;;25.17;11.77;;;384.10;2176.00;;;;;;5023331;28;20057;-89
2022/01/02 11:57:02;;;;;;;18.58;9.65;;;384.10;2176.00;;;;;;5003228;28;20033;-87
2022/01/02 11:59:40;;;;;;;17.67;10.70;;;384.20;2176.00;;;;;;5016984;28;20025;-87
2022/01/02 12:02:09;;;;;;;15.27;8.80;;;384.30;2176.00;;;;;;5003250;28;20044;-91
2022/01/02 12:07:32;;;;;;;14.70;10.27;;;384.80;2124.80;;;;;;5026535;28;20425;-90
2022/01/02 12:10:20;;;;;;;12.65;8.88;;;461.60;1792.00;;;;;;5005529;28;20061;-89
2022/01/02 12:13:10;;;;;;;16.92;9.98;;;460.80;1843.20;;;;;;5003109;28;20116;-84
2022/01/02 12:15:39;;;;;;;16.30;9.75;;;461.40;1792.00;;;;;;5010789;28;20132;-88
2022/01/02 12:18:27;;;;;;;19.58;9.80;;;435.60;1894.40;;;;;;5020577;28;20034;-88